createdAt,value
2022-11-17T00:04:37.362Z,0.00
2022-11-17T00:09:37.304Z,0.00
2022-11-17T00:14:37.230Z,0.00
2022-11-17T00:19:37.175Z,0.00
2022-11-17T00:24:37.102Z,0.00
2022-11-17T00:29:39.357Z,0.00
2022-11-17T00:34:36.972Z,0.00
2022-11-17T00:39:36.914Z,0.00
2022-11-17T00:44:36.845Z,0.00
2022-11-17T00:49:36.783Z,0.00
2022-11-17T00:54:36.711Z,0.00
2022-11-17T00:59:36.656Z,0.00
2022-11-17T01:04:36.578Z,0.00
2022-11-17T01:09:36.525Z,0.00
2022-11-17T01:14:36.452Z,0.00
2022-11-17T01:19:36.397Z,0.00
2022-11-17T01:24:36.321Z,0.00
2022-11-17T01:29:36.264Z,0.00
2022-11-17T01:34:36.190Z,0.00
2022-11-17T01:39:36.134Z,0.00
2022-11-17T01:44:36.061Z,0.00
2022-11-17T01:49:36.000Z,0.00
2022-11-17T01:54:35.928Z,0.00
2022-11-17T01:59:35.871Z,0.00
2022-11-17T02:04:35.796Z,0.00
2022-11-17T02:09:35.738Z,0.00
2022-11-17T02:14:35.662Z,0.00
2022-11-17T02:19:35.608Z,0.00
2022-11-17T02:24:35.533Z,0.00
2022-11-17T02:29:35.473Z,0.00
2022-11-17T02:34:35.399Z,0.00
2022-11-17T02:39:35.340Z,0.00
2022-11-17T02:44:35.264Z,0.00
2022-11-17T02:49:35.207Z,0.00
2022-11-17T02:54:35.132Z,0.00
2022-11-17T02:59:35.065Z,0.00
2022-11-17T03:04:35.006Z,0.00
2022-11-17T03:09:34.933Z,0.00
2022-11-17T03:14:34.870Z,0.00
2022-11-17T03:19:34.797Z,0.00
2022-11-17T03:24:34.738Z,0.00
2022-11-17T03:29:34.666Z,0.00
2022-11-17T03:34:34.610Z,0.00
2022-11-17T03:39:34.533Z,0.00
2022-11-17T03:44:34.473Z,0.00
2022-11-17T03:49:34.400Z,0.00
2022-11-17T03:54:34.342Z,0.00
2022-11-17T03:59:34.268Z,0.00
2022-11-17T04:04:34.210Z,0.00
2022-11-17T04:09:34.140Z,0.00
2022-11-17T04:14:34.078Z,0.00
2022-11-17T04:19:34.005Z,0.00
2022-11-17T04:24:33.945Z,0.00
2022-11-17T04:29:33.871Z,0.00
2022-11-17T04:34:33.813Z,0.00
2022-11-17T04:39:33.739Z,0.00
2022-11-17T04:44:33.677Z,0.00
2022-11-17T04:49:33.606Z,0.00
2022-11-17T04:54:33.543Z,0.00
2022-11-17T04:59:33.471Z,0.00
2022-11-17T05:04:33.417Z,0.00
2022-11-17T05:09:33.339Z,0.00
2022-11-17T05:14:33.278Z,0.00
2022-11-17T05:19:33.205Z,0.00
2022-11-17T05:24:33.146Z,0.00
2022-11-17T05:29:33.072Z,0.00
2022-11-17T05:34:33.016Z,0.00
2022-11-17T05:39:32.943Z,0.00
2022-11-17T05:44:32.882Z,0.00
2022-11-17T05:49:32.808Z,0.00
2022-11-17T05:54:32.750Z,0.00
2022-11-17T05:59:32.677Z,0.00
2022-11-17T06:04:32.677Z,0.00
2022-11-17T06:09:32.543Z,0.00
2022-11-17T06:14:32.482Z,0.00
2022-11-17T06:19:32.411Z,0.00
2022-11-17T06:24:32.352Z,0.00
2022-11-17T06:29:32.275Z,0.00
2022-11-17T06:34:32.223Z,5.62
2022-11-17T06:39:32.146Z,5.62
2022-11-17T06:44:32.090Z,5.62
2022-11-17T06:49:32.016Z,11.25
2022-11-17T06:54:31.962Z,11.25
2022-11-17T06:59:31.887Z,16.87
2022-11-17T07:04:31.834Z,22.50
2022-11-17T07:09:31.754Z,28.12
2022-11-17T07:14:31.694Z,28.12
2022-11-17T07:19:31.619Z,22.50
2022-11-17T07:24:31.565Z,28.12
2022-11-17T07:29:31.489Z,33.75
2022-11-17T07:34:31.432Z,33.75
2022-11-17T07:39:31.358Z,33.75
2022-11-17T07:44:31.300Z,39.37
2022-11-17T07:49:31.226Z,45.00
2022-11-17T07:54:31.168Z,50.62
2022-11-17T07:59:31.132Z,45.00
2022-11-17T08:04:31.039Z,50.62
2022-11-17T08:09:30.964Z,50.62
2022-11-17T08:14:30.911Z,45.00
2022-11-17T08:19:30.835Z,67.50
2022-11-17T08:24:30.776Z,78.75
2022-11-17T08:29:30.703Z,78.75
2022-11-17T08:34:30.649Z,73.12
2022-11-17T08:39:30.575Z,84.37
2022-11-17T08:44:30.515Z,84.37
2022-11-17T08:49:30.444Z,84.37
2022-11-17T08:54:30.389Z,84.37
2022-11-17T08:59:30.315Z,90.00
2022-11-17T09:04:30.254Z,95.62
2022-11-17T09:09:30.276Z,95.62
2022-11-17T09:14:30.123Z,101.25
2022-11-17T09:19:30.048Z,106.87
2022-11-17T09:24:29.988Z,90.00
2022-11-17T09:29:30.128Z,90.00
2022-11-17T09:34:30.061Z,106.87
2022-11-17T09:39:29.783Z,123.75
2022-11-17T09:44:29.726Z,146.25
2022-11-17T09:49:29.660Z,151.87
2022-11-17T09:54:29.594Z,146.25
2022-11-17T09:59:29.521Z,140.62
2022-11-17T10:04:29.462Z,174.37
2022-11-17T10:09:29.390Z,174.37
2022-11-17T10:14:29.327Z,180.00
2022-11-17T10:19:29.262Z,180.00
2022-11-17T10:24:29.195Z,174.37
2022-11-17T10:29:29.120Z,112.50
2022-11-17T10:34:31.939Z,157.50
2022-11-17T10:39:28.986Z,208.12
2022-11-17T10:44:28.926Z,236.25
2022-11-17T10:49:28.862Z,180.00
2022-11-17T10:54:28.797Z,151.87
2022-11-17T10:59:28.767Z,123.75
2022-11-17T11:04:28.663Z,163.12
2022-11-17T11:09:28.588Z,185.62
2022-11-17T11:14:28.528Z,180.00
2022-11-17T11:19:28.453Z,315.00
2022-11-17T11:24:28.394Z,427.50
2022-11-17T11:29:28.322Z,393.75
2022-11-17T11:34:28.264Z,247.50
2022-11-17T11:39:28.192Z,343.12
2022-11-17T11:44:28.133Z,410.62
2022-11-17T11:49:28.058Z,573.75
2022-11-17T11:54:28.000Z,292.50
2022-11-17T11:59:27.946Z,225.00
2022-11-17T12:04:27.870Z,129.37
2022-11-17T12:09:27.799Z,388.12
2022-11-17T12:14:27.739Z,556.87
2022-11-17T12:19:27.666Z,410.62
2022-11-17T12:24:27.611Z,253.12
2022-11-17T12:29:27.536Z,241.87
2022-11-17T12:34:27.480Z,247.50
2022-11-17T12:39:27.406Z,230.62
2022-11-17T12:44:27.348Z,174.37
2022-11-17T12:49:27.274Z,202.50
2022-11-17T12:54:27.216Z,180.00
2022-11-17T12:59:27.145Z,95.62
2022-11-17T13:04:27.099Z,67.50
2022-11-17T13:09:27.010Z,50.62
2022-11-17T13:14:26.954Z,61.87
2022-11-17T13:19:26.882Z,78.75
2022-11-17T13:24:26.823Z,56.25
2022-11-17T13:29:26.751Z,56.25
2022-11-17T13:34:26.692Z,67.50
2022-11-17T13:39:27.687Z,45.00
2022-11-17T13:44:26.560Z,28.12
2022-11-17T13:49:26.488Z,28.12
2022-11-17T13:54:26.430Z,45.00
2022-11-17T13:59:26.359Z,67.50
2022-11-17T14:04:26.765Z,61.87
2022-11-17T14:09:26.227Z,56.25
2022-11-17T14:14:26.168Z,39.37
2022-11-17T14:19:26.186Z,45.00
2022-11-17T14:24:26.035Z,50.62
2022-11-17T14:29:25.970Z,45.00
2022-11-17T14:34:25.922Z,28.12
2022-11-17T14:39:25.838Z,33.75
2022-11-17T14:44:25.775Z,22.50
2022-11-17T14:49:25.699Z,22.50
2022-11-17T14:54:25.644Z,16.87
2022-11-17T14:59:25.571Z,16.87
2022-11-17T15:04:49.546Z,11.25
2022-11-17T15:09:26.470Z,5.62
2022-11-17T15:14:25.496Z,0.00
2022-11-17T15:19:25.312Z,0.00
2022-11-17T15:24:25.250Z,0.00
2022-11-17T15:29:25.179Z,0.00
2022-11-17T15:34:25.133Z,0.00
2022-11-17T15:39:25.045Z,0.00
2022-11-17T15:44:24.988Z,0.00
2022-11-17T15:49:24.916Z,0.00
2022-11-17T15:54:24.854Z,0.00
2022-11-17T15:59:24.784Z,0.00
2022-11-17T16:04:24.724Z,0.00
2022-11-17T16:09:24.655Z,0.00
2022-11-17T16:14:24.592Z,0.00
2022-11-17T16:19:24.519Z,0.00
2022-11-17T16:24:24.462Z,0.00
2022-11-17T16:29:24.385Z,0.00
2022-11-17T16:34:24.331Z,0.00
2022-11-17T16:39:24.258Z,0.00
2022-11-17T16:44:24.236Z,0.00
2022-11-17T16:49:24.124Z,0.00
2022-11-17T16:54:24.073Z,0.00
2022-11-17T16:59:23.993Z,0.00
2022-11-17T17:04:23.938Z,0.00
2022-11-17T17:09:27.823Z,0.00
2022-11-17T17:14:23.807Z,0.00
2022-11-17T17:19:23.734Z,0.00
2022-11-17T17:24:23.830Z,0.00
2022-11-17T17:29:23.610Z,0.00
2022-11-17T17:34:23.593Z,0.00
2022-11-17T17:39:23.479Z,0.00
2022-11-17T17:44:23.419Z,0.00
2022-11-17T17:49:23.343Z,0.00
2022-11-17T17:54:23.288Z,0.00
2022-11-17T17:59:23.215Z,0.00
2022-11-17T18:04:23.157Z,0.00
2022-11-17T18:09:23.083Z,0.00
2022-11-17T18:14:23.028Z,0.00
2022-11-17T18:19:25.870Z,0.00
2022-11-17T18:24:22.898Z,0.00
2022-11-17T18:29:22.827Z,0.00
2022-11-17T18:34:22.766Z,0.00
2022-11-17T18:39:22.695Z,0.00
2022-11-17T18:44:22.640Z,0.00
2022-11-17T18:49:22.567Z,0.00
2022-11-17T18:54:22.513Z,0.00
2022-11-17T18:59:22.435Z,0.00
2022-11-17T19:04:22.379Z,0.00
2022-11-17T19:09:22.302Z,0.00
2022-11-17T19:14:22.497Z,0.00
2022-11-17T19:19:22.177Z,0.00
2022-11-17T19:24:22.120Z,0.00
2022-11-17T19:29:22.440Z,0.00
2022-11-17T19:34:21.988Z,0.00
2022-11-17T19:39:21.917Z,0.00
2022-11-17T19:44:21.860Z,0.00
2022-11-17T19:49:21.789Z,0.00
2022-11-17T19:54:21.728Z,0.00
2022-11-17T19:59:22.186Z,0.00
2022-11-17T20:04:21.600Z,0.00
2022-11-17T20:09:21.523Z,0.00
2022-11-17T20:14:21.467Z,0.00
2022-11-17T20:19:21.393Z,0.00
2022-11-17T20:24:21.334Z,0.00
2022-11-17T20:29:21.263Z,0.00
2022-11-17T20:34:21.203Z,0.00
2022-11-17T20:39:21.131Z,0.00
2022-11-17T20:44:21.075Z,0.00
2022-11-17T20:49:20.997Z,0.00
2022-11-17T20:54:20.943Z,0.00
2022-11-17T20:59:20.933Z,0.00
2022-11-17T21:04:20.810Z,0.00
2022-11-17T21:09:20.738Z,0.00
2022-11-17T21:14:20.679Z,0.00
2022-11-17T21:19:20.620Z,0.00
2022-11-17T21:24:20.550Z,0.00
2022-11-17T21:29:20.651Z,0.00
2022-11-17T21:34:20.419Z,0.00
2022-11-17T21:39:20.347Z,0.00
2022-11-17T21:44:20.290Z,0.00
2022-11-17T21:49:20.233Z,0.00
2022-11-17T21:54:20.160Z,0.00
2022-11-17T21:59:20.232Z,0.00
2022-11-17T22:04:20.054Z,0.00
2022-11-17T22:09:19.956Z,0.00
2022-11-17T22:14:19.897Z,0.00
2022-11-17T22:19:20.186Z,0.00
2022-11-17T22:24:19.795Z,0.00
2022-11-17T22:29:20.098Z,0.00
2022-11-17T22:34:19.641Z,0.00
2022-11-17T22:39:19.900Z,0.00
2022-11-17T22:44:19.504Z,0.00
2022-11-17T22:49:19.649Z,0.00
2022-11-17T22:54:19.376Z,0.00
2022-11-17T22:59:19.599Z,0.00
2022-11-17T23:04:19.244Z,0.00
2022-11-17T23:09:19.394Z,0.00
2022-11-17T23:14:19.135Z,0.00
2022-11-17T23:19:19.387Z,0.00
2022-11-17T23:24:18.980Z,0.00
2022-11-17T23:29:19.367Z,0.00
2022-11-17T23:34:18.849Z,0.00
2022-11-17T23:39:19.295Z,0.00
2022-11-17T23:44:18.719Z,0.00
2022-11-17T23:49:19.164Z,0.00
2022-11-17T23:54:18.587Z,0.00
2022-11-17T23:59:18.858Z,0.00
